sensor_id;sensor_type;location;lat;lon;timestamp;P1;durP1;ratioP1;P2;durP2;ratioP2
67049;SDS011;53955;52.442;13.284;2023-07-16T00:02:07;3.55;;;2.30;;
67049;SDS011;53955;52.442;13.284;2023-07-16T00:04:34;4.03;;;2.33;;
67049;SDS011;53955;52.442;13.284;2023-07-16T00:07:00;5.20;;;2.45;;
67049;SDS011;53955;52.442;13.284;2023-07-16T00:09:27;3.20;;;2.10;;
67049;SDS011;53955;52.442;13.284;2023-07-16T00:11:54;3.47;;;2.25;;
67049;SDS011;53955;52.442;13.284;2023-07-16T00:14:21;4.13;;;2.65;;
67049;SDS011;53955;52.442;13.284;2023-07-16T00:16:48;3.80;;;2.38;;
67049;SDS011;53955;52.442;13.284;2023-07-16T00:19:15;3.97;;;2.25;;
67049;SDS011;53955;52.442;13.284;2023-07-16T00:21:41;4.97;;;2.30;;
67049;SDS011;53955;52.442;13.284;2023-07-16T00:24:08;4.95;;;2.83;;
67049;SDS011;53955;52.442;13.284;2023-07-16T00:26:34;3.40;;;2.05;;
67049;SDS011;53955;52.442;13.284;2023-07-16T00:29:01;4.68;;;2.00;;
67049;SDS011;53955;52.442;13.284;2023-07-16T00:31:29;8.27;;;3.22;;
67049;SDS011;53955;52.442;13.284;2023-07-16T00:33:56;5.47;;;2.75;;
67049;SDS011;53955;52.442;13.284;2023-07-16T00:36:22;6.28;;;2.63;;
67049;SDS011;53955;52.442;13.284;2023-07-16T00:38:49;3.80;;;2.60;;
67049;SDS011;53955;52.442;13.284;2023-07-16T00:41:16;5.55;;;2.53;;
67049;SDS011;53955;52.442;13.284;2023-07-16T00:43:42;4.68;;;2.28;;
67049;SDS011;53955;52.442;13.284;2023-07-16T00:46:09;4.15;;;2.28;;
67049;SDS011;53955;52.442;13.284;2023-07-16T00:48:38;3.63;;;2.38;;
67049;SDS011;53955;52.442;13.284;2023-07-16T00:51:06;6.35;;;2.75;;
67049;SDS011;53955;52.442;13.284;2023-07-16T00:53:33;7.00;;;2.90;;
67049;SDS011;53955;52.442;13.284;2023-07-16T00:55:59;4.43;;;2.90;;
67049;SDS011;53955;52.442;13.284;2023-07-16T00:58:26;6.47;;;2.83;;
67049;SDS011;53955;52.442;13.284;2023-07-16T01:00:53;4.95;;;2.80;;
67049;SDS011;53955;52.442;13.284;2023-07-16T01:03:19;7.38;;;2.58;;
67049;SDS011;53955;52.442;13.284;2023-07-16T01:05:49;5.63;;;3.22;;
67049;SDS011;53955;52.442;13.284;2023-07-16T01:08:27;6.65;;;3.35;;
67049;SDS011;53955;52.442;13.284;2023-07-16T01:10:59;6.57;;;2.85;;
67049;SDS011;53955;52.442;13.284;2023-07-16T01:13:26;6.07;;;3.10;;
67049;SDS011;53955;52.442;13.284;2023-07-16T01:15:53;6.72;;;2.90;;
67049;SDS011;53955;52.442;13.284;2023-07-16T01:18:20;8.98;;;2.97;;
67049;SDS011;53955;52.442;13.284;2023-07-16T01:20:46;5.22;;;3.55;;
67049;SDS011;53955;52.442;13.284;2023-07-16T01:23:26;6.32;;;3.22;;
67049;SDS011;53955;52.442;13.284;2023-07-16T01:26:05;4.40;;;3.17;;
67049;SDS011;53955;52.442;13.284;2023-07-16T01:28:41;6.35;;;3.63;;
67049;SDS011;53955;52.442;13.284;2023-07-16T01:31:31;6.60;;;3.33;;
67049;SDS011;53955;52.442;13.284;2023-07-16T01:33:59;4.40;;;3.40;;
67049;SDS011;53955;52.442;13.284;2023-07-16T01:36:28;4.40;;;3.40;;
67049;SDS011;53955;52.442;13.284;2023-07-16T01:38:56;7.18;;;3.58;;
67049;SDS011;53955;52.442;13.284;2023-07-16T01:41:23;4.85;;;3.15;;
67049;SDS011;53955;52.442;13.284;2023-07-16T01:43:49;8.23;;;4.03;;
67049;SDS011;53955;52.442;13.284;2023-07-16T01:46:16;5.18;;;3.40;;
67049;SDS011;53955;52.442;13.284;2023-07-16T01:48:45;4.78;;;3.28;;
67049;SDS011;53955;52.442;13.284;2023-07-16T01:51:12;4.18;;;2.95;;
67049;SDS011;53955;52.442;13.284;2023-07-16T01:53:39;6.53;;;3.15;;
67049;SDS011;53955;52.442;13.284;2023-07-16T01:56:05;6.88;;;2.78;;
67049;SDS011;53955;52.442;13.284;2023-07-16T01:58:32;6.55;;;3.13;;
67049;SDS011;53955;52.442;13.284;2023-07-16T02:00:58;4.72;;;2.88;;
67049;SDS011;53955;52.442;13.284;2023-07-16T02:03:25;4.15;;;2.78;;
67049;SDS011;53955;52.442;13.284;2023-07-16T02:05:53;4.80;;;2.75;;
67049;SDS011;53955;52.442;13.284;2023-07-16T02:08:19;2.90;;;2.50;;
67049;SDS011;53955;52.442;13.284;2023-07-16T02:10:46;4.95;;;2.53;;
67049;SDS011;53955;52.442;13.284;2023-07-16T02:13:14;3.65;;;2.33;;
67049;SDS011;53955;52.442;13.284;2023-07-16T02:15:40;3.72;;;2.22;;
67049;SDS011;53955;52.442;13.284;2023-07-16T02:18:08;4.03;;;2.60;;
67049;SDS011;53955;52.442;13.284;2023-07-16T02:20:35;3.95;;;2.25;;
67049;SDS011;53955;52.442;13.284;2023-07-16T02:23:03;3.33;;;2.35;;
67049;SDS011;53955;52.442;13.284;2023-07-16T02:25:30;4.28;;;2.10;;
67049;SDS011;53955;52.442;13.284;2023-07-16T02:27:58;6.57;;;2.20;;
67049;SDS011;53955;52.442;13.284;2023-07-16T02:30:24;4.32;;;2.33;;
67049;SDS011;53955;52.442;13.284;2023-07-16T02:32:51;5.28;;;2.45;;
67049;SDS011;53955;52.442;13.284;2023-07-16T02:35:17;3.40;;;2.13;;
67049;SDS011;53955;52.442;13.284;2023-07-16T02:37:44;3.08;;;2.00;;
67049;SDS011;53955;52.442;13.284;2023-07-16T02:40:12;4.72;;;2.53;;
67049;SDS011;53955;52.442;13.284;2023-07-16T02:42:39;4.20;;;2.67;;
67049;SDS011;53955;52.442;13.284;2023-07-16T02:45:06;4.57;;;2.70;;
67049;SDS011;53955;52.442;13.284;2023-07-16T02:47:33;7.95;;;2.33;;
67049;SDS011;53955;52.442;13.284;2023-07-16T02:49:59;3.65;;;2.25;;
67049;SDS011;53955;52.442;13.284;2023-07-16T02:52:26;3.75;;;2.33;;
67049;SDS011;53955;52.442;13.284;2023-07-16T02:54:53;4.22;;;2.30;;
67049;SDS011;53955;52.442;13.284;2023-07-16T02:59:49;3.88;;;2.42;;
67049;SDS011;53955;52.442;13.284;2023-07-16T03:02:18;4.18;;;2.20;;
67049;SDS011;53955;52.442;13.284;2023-07-16T03:04:44;3.75;;;2.10;;
67049;SDS011;53955;52.442;13.284;2023-07-16T03:07:11;3.53;;;2.33;;
67049;SDS011;53955;52.442;13.284;2023-07-16T03:09:37;3.20;;;2.20;;
67049;SDS011;53955;52.442;13.284;2023-07-16T03:12:04;3.60;;;2.00;;
67049;SDS011;53955;52.442;13.284;2023-07-16T03:14:33;5.00;;;2.20;;
67049;SDS011;53955;52.442;13.284;2023-07-16T03:16:59;3.38;;;2.08;;
67049;SDS011;53955;52.442;13.284;2023-07-16T03:19:26;2.75;;;2.05;;
67049;SDS011;53955;52.442;13.284;2023-07-16T03:21:53;5.30;;;2.10;;
67049;SDS011;53955;52.442;13.284;2023-07-16T03:24:19;4.43;;;1.85;;
67049;SDS011;53955;52.442;13.284;2023-07-16T03:26:46;3.30;;;2.00;;
67049;SDS011;53955;52.442;13.284;2023-07-16T03:29:12;3.15;;;1.88;;
67049;SDS011;53955;52.442;13.284;2023-07-16T03:31:40;2.65;;;1.70;;
67049;SDS011;53955;52.442;13.284;2023-07-16T03:34:07;3.03;;;1.83;;
67049;SDS011;53955;52.442;13.284;2023-07-16T03:36:33;2.97;;;1.85;;
67049;SDS011;53955;52.442;13.284;2023-07-16T03:39:00;4.70;;;1.92;;
67049;SDS011;53955;52.442;13.284;2023-07-16T03:41:27;4.18;;;1.80;;
67049;SDS011;53955;52.442;13.284;2023-07-16T03:43:54;2.95;;;1.80;;
67049;SDS011;53955;52.442;13.284;2023-07-16T03:46:20;3.72;;;1.90;;
67049;SDS011;53955;52.442;13.284;2023-07-16T03:48:48;4.25;;;2.05;;
67049;SDS011;53955;52.442;13.284;2023-07-16T03:51:15;4.18;;;2.08;;
67049;SDS011;53955;52.442;13.284;2023-07-16T03:53:42;4.43;;;1.73;;
67049;SDS011;53955;52.442;13.284;2023-07-16T03:56:09;5.95;;;1.73;;
67049;SDS011;53955;52.442;13.284;2023-07-16T03:58:35;3.30;;;1.40;;
67049;SDS011;53955;52.442;13.284;2023-07-16T04:01:02;3.45;;;1.95;;
67049;SDS011;53955;52.442;13.284;2023-07-16T04:03:28;3.72;;;1.88;;
67049;SDS011;53955;52.442;13.284;2023-07-16T04:06:01;5.30;;;1.58;;
67049;SDS011;53955;52.442;13.284;2023-07-16T04:08:28;3.83;;;1.77;;
67049;SDS011;53955;52.442;13.284;2023-07-16T04:10:55;4.13;;;1.70;;
67049;SDS011;53955;52.442;13.284;2023-07-16T04:13:22;2.60;;;1.73;;
67049;SDS011;53955;52.442;13.284;2023-07-16T04:15:48;4.78;;;1.90;;
67049;SDS011;53955;52.442;13.284;2023-07-16T04:18:18;3.67;;;2.03;;
67049;SDS011;53955;52.442;13.284;2023-07-16T04:20:44;4.40;;;2.00;;
67049;SDS011;53955;52.442;13.284;2023-07-16T04:23:12;3.38;;;1.80;;
67049;SDS011;53955;52.442;13.284;2023-07-16T04:25:39;2.78;;;1.67;;
67049;SDS011;53955;52.442;13.284;2023-07-16T04:28:05;5.57;;;1.85;;
67049;SDS011;53955;52.442;13.284;2023-07-16T04:30:32;4.85;;;1.92;;
67049;SDS011;53955;52.442;13.284;2023-07-16T04:32:58;6.15;;;2.10;;
67049;SDS011;53955;52.442;13.284;2023-07-16T04:35:25;5.38;;;2.17;;
67049;SDS011;53955;52.442;13.284;2023-07-16T04:37:51;4.20;;;2.38;;
67049;SDS011;53955;52.442;13.284;2023-07-16T04:40:19;3.85;;;2.03;;
67049;SDS011;53955;52.442;13.284;2023-07-16T04:42:46;4.47;;;2.10;;
67049;SDS011;53955;52.442;13.284;2023-07-16T04:45:12;3.58;;;2.22;;
67049;SDS011;53955;52.442;13.284;2023-07-16T04:47:39;4.97;;;1.95;;
67049;SDS011;53955;52.442;13.284;2023-07-16T04:50:06;3.42;;;2.50;;
67049;SDS011;53955;52.442;13.284;2023-07-16T04:52:33;5.07;;;2.72;;
67049;SDS011;53955;52.442;13.284;2023-07-16T04:54:59;4.55;;;2.45;;
67049;SDS011;53955;52.442;13.284;2023-07-16T04:57:27;3.63;;;2.42;;
67049;SDS011;53955;52.442;13.284;2023-07-16T04:59:54;4.30;;;2.33;;
67049;SDS011;53955;52.442;13.284;2023-07-16T05:02:20;6.00;;;2.88;;
67049;SDS011;53955;52.442;13.284;2023-07-16T05:04:47;4.25;;;2.53;;
67049;SDS011;53955;52.442;13.284;2023-07-16T05:07:13;6.10;;;2.53;;
67049;SDS011;53955;52.442;13.284;2023-07-16T05:09:41;4.82;;;2.40;;
67049;SDS011;53955;52.442;13.284;2023-07-16T05:12:08;5.15;;;3.17;;
67049;SDS011;53955;52.442;13.284;2023-07-16T05:14:43;9.50;;;2.85;;
67049;SDS011;53955;52.442;13.284;2023-07-16T05:17:11;4.60;;;2.55;;
67049;SDS011;53955;52.442;13.284;2023-07-16T05:19:37;3.42;;;2.17;;
67049;SDS011;53955;52.442;13.284;2023-07-16T05:22:04;4.97;;;2.78;;
67049;SDS011;53955;52.442;13.284;2023-07-16T05:24:31;4.72;;;2.97;;
67049;SDS011;53955;52.442;13.284;2023-07-16T05:26:58;4.78;;;2.88;;
67049;SDS011;53955;52.442;13.284;2023-07-16T05:29:24;5.43;;;2.90;;
67049;SDS011;53955;52.442;13.284;2023-07-16T05:34:28;7.63;;;3.22;;
67049;SDS011;53955;52.442;13.284;2023-07-16T05:36:55;5.22;;;2.80;;
67049;SDS011;53955;52.442;13.284;2023-07-16T05:39:22;6.15;;;2.38;;
67049;SDS011;53955;52.442;13.284;2023-07-16T05:41:48;5.22;;;2.20;;
67049;SDS011;53955;52.442;13.284;2023-07-16T05:44:15;7.80;;;2.58;;
67049;SDS011;53955;52.442;13.284;2023-07-16T05:46:41;4.97;;;2.53;;
67049;SDS011;53955;52.442;13.284;2023-07-16T05:49:08;3.08;;;2.15;;
67049;SDS011;53955;52.442;13.284;2023-07-16T05:51:36;8.02;;;2.75;;
67049;SDS011;53955;52.442;13.284;2023-07-16T05:54:02;6.55;;;2.55;;
67049;SDS011;53955;52.442;13.284;2023-07-16T05:56:29;3.35;;;2.38;;
67049;SDS011;53955;52.442;13.284;2023-07-16T05:58:55;5.93;;;2.42;;
67049;SDS011;53955;52.442;13.284;2023-07-16T06:01:22;4.32;;;2.08;;
67049;SDS011;53955;52.442;13.284;2023-07-16T06:03:48;2.50;;;1.65;;
67049;SDS011;53955;52.442;13.284;2023-07-16T06:06:15;3.67;;;1.83;;
67049;SDS011;53955;52.442;13.284;2023-07-16T06:08:43;2.55;;;1.60;;
67049;SDS011;53955;52.442;13.284;2023-07-16T06:11:11;2.88;;;1.63;;
67049;SDS011;53955;52.442;13.284;2023-07-16T06:13:38;4.10;;;2.00;;
67049;SDS011;53955;52.442;13.284;2023-07-16T06:16:04;2.35;;;1.70;;
67049;SDS011;53955;52.442;13.284;2023-07-16T06:18:31;3.85;;;1.58;;
67049;SDS011;53955;52.442;13.284;2023-07-16T06:20:57;2.67;;;1.63;;
67049;SDS011;53955;52.442;13.284;2023-07-16T06:23:24;3.90;;;1.60;;
67049;SDS011;53955;52.442;13.284;2023-07-16T06:25:54;5.00;;;1.77;;
67049;SDS011;53955;52.442;13.284;2023-07-16T06:28:22;3.17;;;1.65;;
67049;SDS011;53955;52.442;13.284;2023-07-16T06:30:49;6.82;;;1.67;;
67049;SDS011;53955;52.442;13.284;2023-07-16T06:33:16;5.30;;;2.05;;
67049;SDS011;53955;52.442;13.284;2023-07-16T06:35:44;2.95;;;1.65;;
67049;SDS011;53955;52.442;13.284;2023-07-16T06:38:11;5.95;;;2.28;;
67049;SDS011;53955;52.442;13.284;2023-07-16T06:40:37;3.78;;;1.65;;
67049;SDS011;53955;52.442;13.284;2023-07-16T06:43:05;3.13;;;1.92;;
67049;SDS011;53955;52.442;13.284;2023-07-16T06:45:32;5.53;;;2.00;;
67049;SDS011;53955;52.442;13.284;2023-07-16T06:47:59;4.57;;;1.70;;
67049;SDS011;53955;52.442;13.284;2023-07-16T06:50:25;3.90;;;1.60;;
67049;SDS011;53955;52.442;13.284;2023-07-16T06:52:52;3.40;;;1.77;;
67049;SDS011;53955;52.442;13.284;2023-07-16T06:55:18;2.75;;;1.83;;
67049;SDS011;53955;52.442;13.284;2023-07-16T06:57:45;4.20;;;2.10;;
67049;SDS011;53955;52.442;13.284;2023-07-16T07:00:13;2.85;;;1.88;;
67049;SDS011;53955;52.442;13.284;2023-07-16T07:02:40;3.33;;;2.00;;
67049;SDS011;53955;52.442;13.284;2023-07-16T07:05:07;2.40;;;1.73;;
67049;SDS011;53955;52.442;13.284;2023-07-16T07:07:33;3.70;;;1.80;;
67049;SDS011;53955;52.442;13.284;2023-07-16T07:10:00;2.83;;;1.63;;
67049;SDS011;53955;52.442;13.284;2023-07-16T07:12:27;2.83;;;1.60;;
67049;SDS011;53955;52.442;13.284;2023-07-16T07:14:53;6.45;;;2.33;;
67049;SDS011;53955;52.442;13.284;2023-07-16T07:17:21;3.22;;;1.70;;
67049;SDS011;53955;52.442;13.284;2023-07-16T07:19:48;3.40;;;1.60;;
67049;SDS011;53955;52.442;13.284;2023-07-16T07:22:14;9.82;;;2.38;;
67049;SDS011;53955;52.442;13.284;2023-07-16T07:24:41;4.47;;;2.25;;
67049;SDS011;53955;52.442;13.284;2023-07-16T07:27:07;4.07;;;2.40;;
67049;SDS011;53955;52.442;13.284;2023-07-16T07:29:34;2.72;;;1.70;;
67049;SDS011;53955;52.442;13.284;2023-07-16T07:32:01;7.22;;;2.33;;
67049;SDS011;53955;52.442;13.284;2023-07-16T07:34:28;5.13;;;2.15;;
67049;SDS011;53955;52.442;13.284;2023-07-16T07:36:55;5.30;;;1.90;;
67049;SDS011;53955;52.442;13.284;2023-07-16T07:39:21;2.65;;;1.70;;
67049;SDS011;53955;52.442;13.284;2023-07-16T07:41:48;4.22;;;2.20;;
67049;SDS011;53955;52.442;13.284;2023-07-16T07:44:14;3.75;;;1.80;;
67049;SDS011;53955;52.442;13.284;2023-07-16T07:46:41;3.50;;;1.70;;
67049;SDS011;53955;52.442;13.284;2023-07-16T07:49:07;4.28;;;2.08;;
67049;SDS011;53955;52.442;13.284;2023-07-16T07:51:35;3.20;;;1.80;;
67049;SDS011;53955;52.442;13.284;2023-07-16T07:54:02;2.65;;;1.80;;
67049;SDS011;53955;52.442;13.284;2023-07-16T07:56:28;3.20;;;1.73;;
67049;SDS011;53955;52.442;13.284;2023-07-16T07:58:56;4.72;;;2.30;;
67049;SDS011;53955;52.442;13.284;2023-07-16T08:01:22;6.13;;;2.08;;
67049;SDS011;53955;52.442;13.284;2023-07-16T08:03:49;4.20;;;1.85;;
67049;SDS011;53955;52.442;13.284;2023-07-16T08:06:15;3.30;;;1.67;;
67049;SDS011;53955;52.442;13.284;2023-07-16T08:08:43;5.15;;;1.83;;
67049;SDS011;53955;52.442;13.284;2023-07-16T08:11:10;3.45;;;1.60;;
67049;SDS011;53955;52.442;13.284;2023-07-16T08:13:36;5.40;;;1.83;;
67049;SDS011;53955;52.442;13.284;2023-07-16T08:16:03;2.83;;;1.38;;
67049;SDS011;53955;52.442;13.284;2023-07-16T08:18:30;6.28;;;1.90;;
67049;SDS011;53955;52.442;13.284;2023-07-16T08:20:56;6.35;;;1.73;;
67049;SDS011;53955;52.442;13.284;2023-07-16T08:23:23;7.57;;;1.85;;
67049;SDS011;53955;52.442;13.284;2023-07-16T08:25:51;2.40;;;1.10;;
67049;SDS011;53955;52.442;13.284;2023-07-16T08:28:18;4.97;;;1.38;;
67049;SDS011;53955;52.442;13.284;2023-07-16T08:30:46;3.53;;;1.60;;
67049;SDS011;53955;52.442;13.284;2023-07-16T08:33:13;3.25;;;1.77;;
67049;SDS011;53955;52.442;13.284;2023-07-16T08:35:40;2.95;;;1.40;;
67049;SDS011;53955;52.442;13.284;2023-07-16T08:38:07;2.90;;;1.60;;
67049;SDS011;53955;52.442;13.284;2023-07-16T08:40:34;2.70;;;1.52;;
67049;SDS011;53955;52.442;13.284;2023-07-16T08:43:02;3.72;;;1.55;;
67049;SDS011;53955;52.442;13.284;2023-07-16T08:45:31;2.40;;;1.40;;
67049;SDS011;53955;52.442;13.284;2023-07-16T08:48:01;4.72;;;1.50;;
67049;SDS011;53955;52.442;13.284;2023-07-16T08:50:28;4.80;;;1.42;;
67049;SDS011;53955;52.442;13.284;2023-07-16T08:52:55;3.22;;;1.58;;
67049;SDS011;53955;52.442;13.284;2023-07-16T08:55:24;2.63;;;1.58;;
67049;SDS011;53955;52.442;13.284;2023-07-16T08:57:50;4.43;;;1.75;;
67049;SDS011;53955;52.442;13.284;2023-07-16T09:00:19;3.85;;;1.70;;
67049;SDS011;53955;52.442;13.284;2023-07-16T09:02:47;2.58;;;1.58;;
67049;SDS011;53955;52.442;13.284;2023-07-16T09:05:14;3.35;;;1.52;;
67049;SDS011;53955;52.442;13.284;2023-07-16T09:07:45;4.05;;;1.80;;
67049;SDS011;53955;52.442;13.284;2023-07-16T09:10:11;3.17;;;1.55;;
67049;SDS011;53955;52.442;13.284;2023-07-16T09:12:41;3.33;;;1.60;;
67049;SDS011;53955;52.442;13.284;2023-07-16T09:15:08;2.85;;;1.50;;
67049;SDS011;53955;52.442;13.284;2023-07-16T09:17:36;7.25;;;2.40;;
67049;SDS011;53955;52.442;13.284;2023-07-16T09:20:04;6.53;;;2.30;;
67049;SDS011;53955;52.442;13.284;2023-07-16T09:22:32;6.22;;;1.77;;
67049;SDS011;53955;52.442;13.284;2023-07-16T09:24:59;2.60;;;1.55;;
67049;SDS011;53955;52.442;13.284;2023-07-16T09:27:27;4.45;;;1.63;;
67049;SDS011;53955;52.442;13.284;2023-07-16T09:29:54;4.32;;;1.75;;
67049;SDS011;53955;52.442;13.284;2023-07-16T09:32:21;3.15;;;1.75;;
67049;SDS011;53955;52.442;13.284;2023-07-16T09:34:50;4.28;;;1.63;;
67049;SDS011;53955;52.442;13.284;2023-07-16T09:37:17;4.97;;;1.90;;
67049;SDS011;53955;52.442;13.284;2023-07-16T09:39:44;3.67;;;1.95;;
67049;SDS011;53955;52.442;13.284;2023-07-16T09:42:13;3.88;;;1.70;;
67049;SDS011;53955;52.442;13.284;2023-07-16T09:44:43;2.45;;;1.75;;
67049;SDS011;53955;52.442;13.284;2023-07-16T09:47:10;5.10;;;1.92;;
67049;SDS011;53955;52.442;13.284;2023-07-16T09:49:37;5.28;;;1.60;;
67049;SDS011;53955;52.442;13.284;2023-07-16T09:52:05;5.53;;;1.60;;
67049;SDS011;53955;52.442;13.284;2023-07-16T09:54:32;2.75;;;1.60;;
67049;SDS011;53955;52.442;13.284;2023-07-16T09:57:04;3.60;;;1.65;;
67049;SDS011;53955;52.442;13.284;2023-07-16T09:59:32;2.65;;;1.42;;
67049;SDS011;53955;52.442;13.284;2023-07-16T10:02:00;3.97;;;1.40;;
67049;SDS011;53955;52.442;13.284;2023-07-16T10:04:36;3.33;;;1.63;;
67049;SDS011;53955;52.442;13.284;2023-07-16T10:07:06;3.05;;;1.80;;
67049;SDS011;53955;52.442;13.284;2023-07-16T10:09:33;4.68;;;1.40;;
67049;SDS011;53955;52.442;13.284;2023-07-16T10:12:07;4.30;;;2.00;;
67049;SDS011;53955;52.442;13.284;2023-07-16T10:14:40;2.80;;;1.70;;
67049;SDS011;53955;52.442;13.284;2023-07-16T10:17:11;4.47;;;1.40;;
67049;SDS011;53955;52.442;13.284;2023-07-16T10:19:52;9.25;;;1.60;;
67049;SDS011;53955;52.442;13.284;2023-07-16T10:22:32;2.90;;;1.50;;
67049;SDS011;53955;52.442;13.284;2023-07-16T10:25:00;3.42;;;1.80;;
67049;SDS011;53955;52.442;13.284;2023-07-16T10:27:28;3.45;;;1.38;;
67049;SDS011;53955;52.442;13.284;2023-07-16T10:29:55;8.02;;;1.73;;
67049;SDS011;53955;52.442;13.284;2023-07-16T10:32:21;2.47;;;1.40;;
67049;SDS011;53955;52.442;13.284;2023-07-16T10:34:52;3.35;;;1.50;;
67049;SDS011;53955;52.442;13.284;2023-07-16T10:37:18;3.05;;;1.67;;
67049;SDS011;53955;52.442;13.284;2023-07-16T10:39:47;3.83;;;2.05;;
67049;SDS011;53955;52.442;13.284;2023-07-16T10:42:15;4.28;;;1.80;;
67049;SDS011;53955;52.442;13.284;2023-07-16T10:44:42;3.38;;;1.88;;
67049;SDS011;53955;52.442;13.284;2023-07-16T10:47:10;6.15;;;2.00;;
67049;SDS011;53955;52.442;13.284;2023-07-16T10:49:44;2.85;;;1.55;;
67049;SDS011;53955;52.442;13.284;2023-07-16T10:52:11;3.05;;;1.60;;
67049;SDS011;53955;52.442;13.284;2023-07-16T10:54:39;3.20;;;1.90;;
67049;SDS011;53955;52.442;13.284;2023-07-16T10:57:07;4.07;;;1.80;;
67049;SDS011;53955;52.442;13.284;2023-07-16T10:59:36;5.40;;;2.10;;
67049;SDS011;53955;52.442;13.284;2023-07-16T11:02:03;4.22;;;1.48;;
67049;SDS011;53955;52.442;13.284;2023-07-16T11:04:33;2.67;;;1.60;;
67049;SDS011;53955;52.442;13.284;2023-07-16T11:07:01;4.32;;;1.90;;
67049;SDS011;53955;52.442;13.284;2023-07-16T11:09:31;4.32;;;2.00;;
67049;SDS011;53955;52.442;13.284;2023-07-16T11:12:04;4.88;;;2.03;;
67049;SDS011;53955;52.442;13.284;2023-07-16T11:14:33;4.55;;;2.00;;
67049;SDS011;53955;52.442;13.284;2023-07-16T11:17:03;3.72;;;2.00;;
67049;SDS011;53955;52.442;13.284;2023-07-16T11:19:31;6.40;;;2.40;;
67049;SDS011;53955;52.442;13.284;2023-07-16T11:21:59;4.63;;;1.83;;
67049;SDS011;53955;52.442;13.284;2023-07-16T11:24:26;4.55;;;1.92;;
67049;SDS011;53955;52.442;13.284;2023-07-16T11:26:53;4.47;;;1.67;;
67049;SDS011;53955;52.442;13.284;2023-07-16T11:29:22;2.45;;;1.60;;
67049;SDS011;53955;52.442;13.284;2023-07-16T11:31:50;4.53;;;1.80;;
67049;SDS011;53955;52.442;13.284;2023-07-16T11:34:19;3.20;;;1.67;;
67049;SDS011;53955;52.442;13.284;2023-07-16T11:36:47;1.73;;;1.33;;
67049;SDS011;53955;52.442;13.284;2023-07-16T11:39:14;2.75;;;1.20;;
67049;SDS011;53955;52.442;13.284;2023-07-16T11:41:40;5.20;;;1.75;;
67049;SDS011;53955;52.442;13.284;2023-07-16T11:44:07;2.20;;;1.50;;
67049;SDS011;53955;52.442;13.284;2023-07-16T11:46:34;4.43;;;1.55;;
67049;SDS011;53955;52.442;13.284;2023-07-16T11:49:02;4.28;;;1.45;;
67049;SDS011;53955;52.442;13.284;2023-07-16T11:51:29;4.38;;;1.25;;
67049;SDS011;53955;52.442;13.284;2023-07-16T11:53:56;3.30;;;1.45;;
67049;SDS011;53955;52.442;13.284;2023-07-16T11:56:23;6.95;;;1.38;;
67049;SDS011;53955;52.442;13.284;2023-07-16T11:58:50;4.78;;;1.40;;
67049;SDS011;53955;52.442;13.284;2023-07-16T12:01:16;5.25;;;1.77;;
67049;SDS011;53955;52.442;13.284;2023-07-16T12:03:43;5.35;;;1.30;;
67049;SDS011;53955;52.442;13.284;2023-07-16T12:06:10;3.05;;;1.35;;
67049;SDS011;53955;52.442;13.284;2023-07-16T12:08:37;5.00;;;1.58;;
67049;SDS011;53955;52.442;13.284;2023-07-16T12:11:04;4.22;;;1.48;;
67049;SDS011;53955;52.442;13.284;2023-07-16T12:13:30;3.75;;;1.40;;
67049;SDS011;53955;52.442;13.284;2023-07-16T12:15:57;5.97;;;1.55;;
67049;SDS011;53955;52.442;13.284;2023-07-16T12:18:24;5.93;;;1.70;;
67049;SDS011;53955;52.442;13.284;2023-07-16T12:20:50;5.65;;;1.92;;
67049;SDS011;53955;52.442;13.284;2023-07-16T12:23:18;2.03;;;1.10;;
67049;SDS011;53955;52.442;13.284;2023-07-16T12:25:45;3.35;;;1.50;;
67049;SDS011;53955;52.442;13.284;2023-07-16T12:28:12;3.05;;;1.20;;
67049;SDS011;53955;52.442;13.284;2023-07-16T12:30:38;2.47;;;1.33;;
67049;SDS011;53955;52.442;13.284;2023-07-16T12:33:05;2.55;;;1.13;;
67049;SDS011;53955;52.442;13.284;2023-07-16T12:35:32;4.90;;;1.30;;
67049;SDS011;53955;52.442;13.284;2023-07-16T12:37:58;4.00;;;1.38;;
67049;SDS011;53955;52.442;13.284;2023-07-16T12:40:28;5.55;;;1.50;;
67049;SDS011;53955;52.442;13.284;2023-07-16T12:42:55;3.10;;;1.13;;
67049;SDS011;53955;52.442;13.284;2023-07-16T12:45:22;9.35;;;1.45;;
67049;SDS011;53955;52.442;13.284;2023-07-16T12:47:48;5.07;;;1.70;;
67049;SDS011;53955;52.442;13.284;2023-07-16T12:50:15;3.95;;;1.50;;
67049;SDS011;53955;52.442;13.284;2023-07-16T12:52:43;5.95;;;2.10;;
67049;SDS011;53955;52.442;13.284;2023-07-16T12:55:09;5.90;;;1.40;;
67049;SDS011;53955;52.442;13.284;2023-07-16T12:57:37;3.15;;;1.20;;
67049;SDS011;53955;52.442;13.284;2023-07-16T13:00:04;4.18;;;1.60;;
67049;SDS011;53955;52.442;13.284;2023-07-16T13:02:34;4.18;;;1.58;;
67049;SDS011;53955;52.442;13.284;2023-07-16T13:05:01;3.15;;;1.45;;
67049;SDS011;53955;52.442;13.284;2023-07-16T13:07:28;5.57;;;1.60;;
67049;SDS011;53955;52.442;13.284;2023-07-16T13:09:55;3.88;;;1.48;;
67049;SDS011;53955;52.442;13.284;2023-07-16T13:12:22;3.72;;;1.63;;
67049;SDS011;53955;52.442;13.284;2023-07-16T13:14:50;2.92;;;1.30;;
67049;SDS011;53955;52.442;13.284;2023-07-16T13:17:17;3.35;;;1.27;;
67049;SDS011;53955;52.442;13.284;2023-07-16T13:19:44;4.85;;;1.30;;
67049;SDS011;53955;52.442;13.284;2023-07-16T13:22:11;5.15;;;1.10;;
67049;SDS011;53955;52.442;13.284;2023-07-16T13:24:38;3.83;;;1.50;;
67049;SDS011;53955;52.442;13.284;2023-07-16T13:27:05;3.13;;;1.42;;
67049;SDS011;53955;52.442;13.284;2023-07-16T13:29:31;3.92;;;1.70;;
67049;SDS011;53955;52.442;13.284;2023-07-16T13:31:59;3.53;;;1.42;;
67049;SDS011;53955;52.442;13.284;2023-07-16T13:34:26;3.13;;;1.40;;
67049;SDS011;53955;52.442;13.284;2023-07-16T13:36:52;3.13;;;1.25;;
67049;SDS011;53955;52.442;13.284;2023-07-16T13:39:19;3.15;;;1.40;;
67049;SDS011;53955;52.442;13.284;2023-07-16T13:41:45;3.72;;;1.60;;
67049;SDS011;53955;52.442;13.284;2023-07-16T13:44:12;3.42;;;1.02;;
67049;SDS011;53955;52.442;13.284;2023-07-16T13:46:38;3.47;;;1.45;;
67049;SDS011;53955;52.442;13.284;2023-07-16T13:49:07;4.55;;;1.42;;
67049;SDS011;53955;52.442;13.284;2023-07-16T13:51:33;2.55;;;0.88;;
67049;SDS011;53955;52.442;13.284;2023-07-16T13:54:00;3.45;;;1.33;;
67049;SDS011;53955;52.442;13.284;2023-07-16T13:56:26;4.20;;;1.40;;
67049;SDS011;53955;52.442;13.284;2023-07-16T13:58:53;3.58;;;1.30;;
67049;SDS011;53955;52.442;13.284;2023-07-16T14:01:20;4.90;;;1.20;;
67049;SDS011;53955;52.442;13.284;2023-07-16T14:03:47;2.67;;;1.10;;
67049;SDS011;53955;52.442;13.284;2023-07-16T14:06:15;2.92;;;1.58;;
67049;SDS011;53955;52.442;13.284;2023-07-16T14:08:42;6.03;;;1.73;;
67049;SDS011;53955;52.442;13.284;2023-07-16T14:11:08;4.13;;;1.40;;
67049;SDS011;53955;52.442;13.284;2023-07-16T14:13:35;2.83;;;0.93;;
67049;SDS011;53955;52.442;13.284;2023-07-16T14:16:01;3.35;;;0.98;;
67049;SDS011;53955;52.442;13.284;2023-07-16T14:18:28;2.40;;;1.00;;
67049;SDS011;53955;52.442;13.284;2023-07-16T14:20:55;3.90;;;1.40;;
67049;SDS011;53955;52.442;13.284;2023-07-16T14:23:22;3.13;;;1.20;;
67049;SDS011;53955;52.442;13.284;2023-07-16T14:25:49;4.28;;;1.20;;
67049;SDS011;53955;52.442;13.284;2023-07-16T14:28:16;2.35;;;1.10;;
67049;SDS011;53955;52.442;13.284;2023-07-16T14:30:42;4.90;;;1.05;;
67049;SDS011;53955;52.442;13.284;2023-07-16T14:33:09;4.15;;;1.15;;
67049;SDS011;53955;52.442;13.284;2023-07-16T14:35:35;4.15;;;1.35;;
67049;SDS011;53955;52.442;13.284;2023-07-16T14:38:02;2.55;;;1.00;;
67049;SDS011;53955;52.442;13.284;2023-07-16T14:40:30;4.07;;;1.30;;